createdAt,value
2022-12-28T00:00:30.038Z,3.50
2022-12-28T00:03:36.152Z,3.58
2022-12-28T00:06:41.442Z,4.15
2022-12-28T00:09:47.327Z,4.08
2022-12-28T00:12:54.163Z,3.45
2022-12-28T00:16:00.891Z,3.52
2022-12-28T00:19:06.898Z,3.55
2022-12-28T00:22:13.527Z,3.22
2022-12-28T00:25:19.668Z,3.52
2022-12-28T00:28:24.965Z,3.40
2022-12-28T00:31:31.497Z,3.50
2022-12-28T00:34:37.709Z,3.55
2022-12-28T00:37:43.695Z,3.15
2022-12-28T00:40:49.871Z,2.90
2022-12-28T00:43:55.905Z,3.02
2022-12-28T00:47:01.398Z,4.05
2022-12-28T00:50:07.701Z,3.05
2022-12-28T00:53:13.835Z,3.45
2022-12-28T00:56:32.039Z,3.30
2022-12-28T00:59:39.615Z,3.08
2022-12-28T01:02:44.547Z,3.35
2022-12-28T01:05:52.560Z,3.08
2022-12-28T01:08:57.611Z,2.70
2022-12-28T01:12:03.778Z,3.20
2022-12-28T01:15:09.982Z,3.62
2022-12-28T01:18:14.940Z,3.20
2022-12-28T01:21:32.780Z,2.95
2022-12-28T01:24:39.458Z,3.77
2022-12-28T01:27:46.143Z,3.58
2022-12-28T01:30:53.402Z,2.80
2022-12-28T01:34:02.135Z,2.80
2022-12-28T01:37:01.065Z,4.12
2022-12-28T01:40:00.793Z,2.80
2022-12-28T01:43:06.672Z,3.45
2022-12-28T01:46:12.103Z,3.72
2022-12-28T01:49:34.789Z,3.35
2022-12-28T01:52:48.808Z,4.03
2022-12-28T01:55:55.135Z,3.62
2022-12-28T01:59:01.076Z,3.83
2022-12-28T02:02:08.480Z,4.20
2022-12-28T02:05:15.346Z,3.50
2022-12-28T02:08:36.419Z,3.77
2022-12-28T02:11:41.764Z,3.47
2022-12-28T02:14:47.708Z,3.90
2022-12-28T02:17:54.117Z,4.17
2022-12-28T02:21:16.082Z,4.10
2022-12-28T02:25:16.707Z,4.25
2022-12-28T02:29:04.161Z,4.58
2022-12-28T02:32:31.151Z,5.25
2022-12-28T02:35:29.376Z,4.67
2022-12-28T02:38:41.975Z,3.87
2022-12-28T02:45:11.343Z,4.60
2022-12-28T02:48:34.598Z,4.17
2022-12-28T02:52:07.486Z,4.22
2022-12-28T02:55:59.975Z,4.28
2022-12-28T02:59:16.945Z,4.55
2022-12-28T03:02:48.015Z,4.15
2022-12-28T03:06:30.632Z,3.92
2022-12-28T03:10:03.233Z,3.75
2022-12-28T03:13:52.795Z,3.85
2022-12-28T03:17:17.508Z,3.33
2022-12-28T03:20:46.599Z,4.10
2022-12-28T03:24:09.987Z,3.83
2022-12-28T03:27:34.278Z,3.92
2022-12-28T03:30:57.810Z,4.05
2022-12-28T03:34:08.675Z,4.10
2022-12-28T03:37:50.562Z,4.95
2022-12-28T03:41:03.920Z,4.47
2022-12-28T03:44:12.884Z,4.62
2022-12-28T03:47:25.509Z,4.55
2022-12-28T03:50:32.963Z,4.50
2022-12-28T03:53:51.140Z,3.60
2022-12-28T03:57:06.273Z,4.22
2022-12-28T04:00:13.759Z,4.28
2022-12-28T04:03:22.355Z,5.67
2022-12-28T04:06:31.120Z,4.92
2022-12-28T04:09:38.881Z,5.08
2022-12-28T04:12:45.240Z,5.42
2022-12-28T04:15:52.363Z,5.00
2022-12-28T04:18:57.280Z,4.53
2022-12-28T04:22:02.707Z,4.40
2022-12-28T04:25:08.765Z,4.90
2022-12-28T04:28:15.235Z,5.45
2022-12-28T04:31:26.162Z,4.30
2022-12-28T04:34:36.390Z,5.30
2022-12-28T04:37:42.342Z,4.53
2022-12-28T04:40:48.665Z,6.78
2022-12-28T04:43:54.763Z,4.25
2022-12-28T04:47:01.063Z,4.90
2022-12-28T04:50:07.712Z,4.78
2022-12-28T04:53:14.915Z,4.47
2022-12-28T04:56:23.611Z,4.75
2022-12-28T04:59:29.528Z,4.28
2022-12-28T05:02:35.003Z,4.55
2022-12-28T05:05:42.503Z,5.15
2022-12-28T05:08:49.783Z,5.58
2022-12-28T05:11:56.487Z,6.28
2022-12-28T05:15:02.720Z,5.25
2022-12-28T05:18:10.344Z,5.80
2022-12-28T05:21:19.427Z,5.20
2022-12-28T05:24:27.380Z,4.80
2022-12-28T05:27:33.388Z,4.80
2022-12-28T05:30:39.821Z,4.70
2022-12-28T05:33:46.544Z,4.37
2022-12-28T05:36:51.468Z,5.90
2022-12-28T05:39:58.278Z,5.00
2022-12-28T05:43:03.469Z,4.78
2022-12-28T05:46:15.365Z,5.00
2022-12-28T05:49:25.345Z,5.30
2022-12-28T05:52:31.485Z,5.22
2022-12-28T05:55:36.993Z,5.17
2022-12-28T05:58:43.736Z,7.08
2022-12-28T06:01:53.570Z,6.87
2022-12-28T06:05:00.779Z,7.50
2022-12-28T06:08:08.476Z,5.17
2022-12-28T06:11:16.633Z,4.87
2022-12-28T06:14:20.793Z,5.17
2022-12-28T06:17:26.265Z,4.78
2022-12-28T06:20:38.436Z,6.00
2022-12-28T06:23:45.864Z,4.50
2022-12-28T06:26:58.727Z,4.90
2022-12-28T06:30:06.020Z,4.28
2022-12-28T06:33:12.614Z,5.47
2022-12-28T06:36:20.654Z,5.22
2022-12-28T06:39:29.216Z,4.90
2022-12-28T06:42:35.959Z,4.87
2022-12-28T06:45:41.810Z,5.05
2022-12-28T06:48:52.299Z,5.85
2022-12-28T06:51:59.864Z,5.97
2022-12-28T06:55:02.063Z,6.22
2022-12-28T06:58:14.799Z,5.75
2022-12-28T07:01:36.617Z,5.47
2022-12-28T07:04:42.258Z,5.47
2022-12-28T07:07:50.054Z,5.55
2022-12-28T07:10:57.121Z,5.87
2022-12-28T07:14:06.345Z,5.92
2022-12-28T07:17:22.797Z,5.10
2022-12-28T07:20:29.697Z,5.25
2022-12-28T07:24:00.946Z,5.72
2022-12-28T07:27:20.986Z,8.25
2022-12-28T07:30:34.053Z,9.65
2022-12-28T07:34:04.572Z,11.88
2022-12-28T07:37:18.482Z,15.38
2022-12-28T07:40:27.688Z,13.05
2022-12-28T07:43:34.186Z,14.63
2022-12-28T07:46:45.010Z,10.95
2022-12-28T07:49:50.802Z,10.85
2022-12-28T07:52:57.189Z,9.53
2022-12-28T07:56:13.835Z,10.93
2022-12-28T07:59:24.694Z,10.48
2022-12-28T08:02:28.126Z,9.95
2022-12-28T08:05:35.954Z,8.48
2022-12-28T08:08:42.017Z,8.35
2022-12-28T08:11:49.281Z,7.80
2022-12-28T08:14:56.260Z,14.45
2022-12-28T08:18:02.456Z,11.95
2022-12-28T08:21:09.380Z,9.23
2022-12-28T08:24:15.479Z,10.65
2022-12-28T08:27:22.529Z,8.60
2022-12-28T08:30:29.815Z,7.58
2022-12-28T08:33:36.536Z,8.30
2022-12-28T08:36:48.616Z,6.45
2022-12-28T08:40:01.972Z,7.47
2022-12-28T08:43:30.184Z,8.53
2022-12-28T08:46:50.058Z,7.55
2022-12-28T08:50:06.288Z,9.98
2022-12-28T08:53:12.402Z,8.20
2022-12-28T08:56:27.446Z,9.55
2022-12-28T08:59:50.730Z,19.92
2022-12-28T09:02:58.035Z,12.45
2022-12-28T09:06:05.735Z,7.97
2022-12-28T09:09:14.031Z,8.08
2022-12-28T09:12:22.202Z,7.90
2022-12-28T09:15:27.706Z,7.75
2022-12-28T09:18:33.483Z,10.08
2022-12-28T09:21:40.713Z,9.08
2022-12-28T09:24:46.607Z,8.33
2022-12-28T09:27:59.148Z,7.85
2022-12-28T09:31:01.085Z,7.92
2022-12-28T09:34:38.746Z,10.10
2022-12-28T09:37:37.050Z,7.58
2022-12-28T09:40:44.877Z,12.60
2022-12-28T09:43:55.673Z,9.50
2022-12-28T09:47:16.544Z,9.00
2022-12-28T09:50:34.854Z,9.50
2022-12-28T09:53:44.554Z,8.65
2022-12-28T09:56:54.989Z,8.73
2022-12-28T10:00:01.298Z,9.15
2022-12-28T10:03:13.086Z,8.65
2022-12-28T10:06:25.438Z,8.90
2022-12-28T10:09:42.176Z,8.25
2022-12-28T10:12:51.232Z,8.25
2022-12-28T10:15:57.567Z,9.20
2022-12-28T10:19:03.023Z,8.48
2022-12-28T10:22:17.280Z,7.80
2022-12-28T10:25:33.281Z,9.75
2022-12-28T10:28:47.130Z,9.35
2022-12-28T10:31:51.581Z,8.18
2022-12-28T10:35:12.705Z,7.92
2022-12-28T10:38:35.069Z,8.13
2022-12-28T10:41:53.087Z,8.33
2022-12-28T10:44:59.503Z,7.95
2022-12-28T10:48:09.275Z,6.70
2022-12-28T10:51:27.444Z,6.55
2022-12-28T10:54:39.809Z,6.67
2022-12-28T10:58:27.019Z,4.62
2022-12-28T11:00:55.136Z,5.60
2022-12-28T11:04:19.415Z,5.25
2022-12-28T11:07:32.328Z,5.85
2022-12-28T11:10:41.715Z,5.20
2022-12-28T11:13:46.854Z,5.47
2022-12-28T11:17:01.941Z,5.92
2022-12-28T11:20:23.054Z,5.65
2022-12-28T11:23:35.017Z,5.08
2022-12-28T11:26:41.708Z,4.33
2022-12-28T11:29:48.991Z,4.65
2022-12-28T11:33:06.029Z,5.03
2022-12-28T11:36:14.782Z,4.95
2022-12-28T11:39:43.945Z,3.90
2022-12-28T11:42:56.607Z,3.70
2022-12-28T11:46:08.805Z,3.70
2022-12-28T11:49:44.630Z,4.12
2022-12-28T11:52:54.014Z,4.65
2022-12-28T11:56:22.743Z,4.33
2022-12-28T11:59:41.697Z,4.53
2022-12-28T12:02:55.803Z,3.85
2022-12-28T12:06:05.547Z,4.12
2022-12-28T12:09:11.125Z,3.60
2022-12-28T12:12:18.412Z,3.42
2022-12-28T12:15:30.909Z,3.72
2022-12-28T12:18:42.134Z,5.65
2022-12-28T12:22:00.291Z,3.15
2022-12-28T12:25:23.747Z,3.35
2022-12-28T12:28:50.302Z,4.60
2022-12-28T12:32:04.328Z,2.85
2022-12-28T12:35:16.999Z,2.90
2022-12-28T12:38:37.406Z,4.50
2022-12-28T12:42:05.533Z,3.02
2022-12-28T12:45:30.345Z,2.50
2022-12-28T12:49:00.034Z,2.12
2022-12-28T12:52:42.265Z,2.35
2022-12-28T12:56:01.664Z,2.33
2022-12-28T12:59:40.443Z,2.72
2022-12-28T13:03:18.225Z,3.22
2022-12-28T13:06:25.091Z,4.12
2022-12-28T13:09:35.075Z,4.25
2022-12-28T13:12:42.254Z,5.33
2022-12-28T13:15:48.035Z,6.05
2022-12-28T13:19:44.915Z,6.42
2022-12-28T13:22:56.817Z,5.92
2022-12-28T13:26:07.145Z,5.08
2022-12-28T13:29:18.847Z,5.80
2022-12-28T13:32:49.620Z,6.37
2022-12-28T13:36:03.883Z,6.22
2022-12-28T13:39:29.377Z,5.72
2022-12-28T13:42:45.483Z,4.87
2022-12-28T13:45:51.165Z,5.00
2022-12-28T13:49:09.817Z,5.85
2022-12-28T13:52:15.232Z,5.40
2022-12-28T13:55:33.786Z,5.30
2022-12-28T13:58:47.841Z,5.22
2022-12-28T14:01:57.090Z,5.70
2022-12-28T14:05:05.226Z,4.85
2022-12-28T14:08:12.349Z,5.78
2022-12-28T14:11:20.865Z,6.37
2022-12-28T14:14:29.413Z,7.28
2022-12-28T14:17:35.696Z,7.25
2022-12-28T14:20:42.876Z,6.10
2022-12-28T14:23:51.016Z,6.37
2022-12-28T14:27:08.762Z,6.10
2022-12-28T14:30:14.545Z,5.47
2022-12-28T14:33:34.361Z,5.97
2022-12-28T14:36:46.491Z,6.78
2022-12-28T14:39:58.287Z,5.90
2022-12-28T14:43:08.219Z,7.22
2022-12-28T14:46:13.991Z,6.75
2022-12-28T14:49:48.282Z,7.28
2022-12-28T14:53:00.320Z,7.42
2022-12-28T14:56:30.898Z,5.97
2022-12-28T14:59:43.207Z,5.78
2022-12-28T15:02:53.622Z,5.05
2022-12-28T15:06:02.190Z,4.92
2022-12-28T15:09:11.952Z,4.78
2022-12-28T15:12:34.431Z,5.12
2022-12-28T15:15:39.684Z,6.45
2022-12-28T15:18:44.655Z,7.30
2022-12-28T15:21:50.199Z,6.72
2022-12-28T15:24:56.693Z,6.67
2022-12-28T15:28:05.519Z,6.72
2022-12-28T15:31:13.349Z,8.90
2022-12-28T15:34:20.407Z,11.43
2022-12-28T15:37:25.467Z,11.12
2022-12-28T15:40:31.294Z,17.50
2022-12-28T15:43:37.283Z,35.65
2022-12-28T15:46:43.552Z,20.35
2022-12-28T15:49:49.206Z,17.02
2022-12-28T15:52:56.292Z,18.00
2022-12-28T15:56:14.623Z,19.62
2022-12-28T15:59:27.669Z,17.95
2022-12-28T16:02:33.919Z,17.55
2022-12-28T16:05:40.657Z,17.27
2022-12-28T16:08:47.720Z,13.03
2022-12-28T16:11:55.463Z,10.23
2022-12-28T16:15:01.509Z,12.63
2022-12-28T16:18:06.846Z,18.00
2022-12-28T16:21:22.192Z,17.70
2022-12-28T16:24:29.371Z,11.97
2022-12-28T16:27:34.498Z,15.50
2022-12-28T16:30:40.072Z,28.30
2022-12-28T16:33:45.579Z,23.70
2022-12-28T16:36:53.973Z,17.02
2022-12-28T16:40:00.064Z,23.73
2022-12-28T16:43:06.761Z,19.67
2022-12-28T16:46:12.619Z,15.13
2022-12-28T16:49:20.019Z,11.00
2022-12-28T16:52:25.562Z,10.98
2022-12-28T16:55:31.509Z,16.85
2022-12-28T16:58:38.094Z,13.85
2022-12-28T17:01:43.209Z,9.83
2022-12-28T17:04:51.062Z,10.63
2022-12-28T17:07:57.955Z,9.93
2022-12-28T17:11:03.968Z,7.92
2022-12-28T17:14:35.939Z,7.00
2022-12-28T17:17:25.602Z,8.78
2022-12-28T17:20:34.505Z,8.53
2022-12-28T17:23:39.338Z,8.30
2022-12-28T17:26:44.597Z,7.47
2022-12-28T17:29:51.724Z,7.12
2022-12-28T17:32:59.302Z,5.67
2022-12-28T17:36:07.082Z,6.00
2022-12-28T17:39:12.784Z,6.75
2022-12-28T17:42:20.561Z,10.28
2022-12-28T17:45:25.666Z,18.67
2022-12-28T17:48:34.421Z,13.22
2022-12-28T17:51:41.106Z,9.98
2022-12-28T17:54:47.560Z,16.32
2022-12-28T17:57:56.249Z,19.90
2022-12-28T18:01:01.974Z,27.10
2022-12-28T18:04:07.465Z,26.62
2022-12-28T18:07:13.409Z,23.55
2022-12-28T18:10:19.309Z,19.40
2022-12-28T18:13:24.773Z,23.02
2022-12-28T18:16:33.760Z,26.87
2022-12-28T18:19:42.060Z,19.10
2022-12-28T18:22:49.162Z,16.82
2022-12-28T18:25:55.737Z,16.27
2022-12-28T18:29:01.475Z,17.70
2022-12-28T18:32:06.117Z,17.12
2022-12-28T18:35:14.405Z,17.17
2022-12-28T18:38:20.134Z,14.28
2022-12-28T18:41:20.193Z,18.05
2022-12-28T18:44:25.894Z,20.57
2022-12-28T18:47:32.033Z,18.12
2022-12-28T18:50:38.796Z,18.95
2022-12-28T18:53:46.040Z,17.30
2022-12-28T18:56:54.174Z,17.00
2022-12-28T19:00:01.366Z,19.75
2022-12-28T19:03:07.066Z,26.12
2022-12-28T19:06:18.214Z,24.10
2022-12-28T19:09:25.454Z,25.62
2022-12-28T19:12:32.341Z,19.67
2022-12-28T19:15:39.536Z,16.30
2022-12-28T19:18:48.546Z,14.58
2022-12-28T19:21:58.886Z,17.77
2022-12-28T19:25:04.352Z,18.23
2022-12-28T19:28:10.466Z,12.13
2022-12-28T19:31:17.616Z,9.65
2022-12-28T19:34:24.058Z,10.45
2022-12-28T19:37:28.904Z,11.88
2022-12-28T19:40:34.090Z,12.68
2022-12-28T19:43:40.605Z,13.18
2022-12-28T19:46:46.798Z,13.03
2022-12-28T19:49:53.456Z,13.43
2022-12-28T19:53:00.027Z,16.40
2022-12-28T19:56:07.081Z,12.93
2022-12-28T19:59:11.985Z,18.35
2022-12-28T20:02:18.847Z,18.92
2022-12-28T20:05:24.913Z,16.02
2022-12-28T20:08:30.988Z,13.95
2022-12-28T20:11:37.254Z,14.13
2022-12-28T20:14:42.805Z,13.75
2022-12-28T20:17:51.093Z,12.03
2022-12-28T20:24:08.047Z,9.73
2022-12-28T20:27:15.095Z,8.70
2022-12-28T20:30:14.468Z,8.40
2022-12-28T20:33:21.814Z,7.92
2022-12-28T20:36:31.107Z,7.72
2022-12-28T20:39:38.006Z,7.50
2022-12-28T20:43:02.557Z,8.65
2022-12-28T20:46:09.793Z,9.15
2022-12-28T20:49:18.732Z,11.05
2022-12-28T20:52:24.699Z,11.48
2022-12-28T20:55:30.299Z,15.48
2022-12-28T20:58:36.548Z,13.85
2022-12-28T21:01:42.699Z,14.30
2022-12-28T21:04:49.949Z,14.83
2022-12-28T21:07:58.260Z,13.70
2022-12-28T21:11:05.148Z,17.30
2022-12-28T21:14:11.961Z,17.32
2022-12-28T21:17:23.993Z,17.12
2022-12-28T21:20:35.464Z,15.75
2022-12-28T21:23:39.444Z,16.62
2022-12-28T21:26:46.392Z,15.40
2022-12-28T21:29:52.382Z,16.73
2022-12-28T21:32:59.293Z,16.32
2022-12-28T21:36:17.297Z,16.87
2022-12-28T21:39:22.294Z,16.80
2022-12-28T21:42:27.486Z,14.28
2022-12-28T21:45:35.057Z,14.13
2022-12-28T21:48:42.588Z,15.40
2022-12-28T21:51:49.313Z,16.35
2022-12-28T21:54:56.810Z,16.23
2022-12-28T21:58:07.947Z,15.43
2022-12-28T22:01:31.529Z,14.53
2022-12-28T22:05:02.231Z,13.85
2022-12-28T22:08:05.455Z,12.73
2022-12-28T22:11:29.727Z,13.30
2022-12-28T22:14:35.745Z,13.32
2022-12-28T22:17:41.565Z,23.02
2022-12-28T22:20:49.716Z,14.28
2022-12-28T22:23:56.024Z,13.50
2022-12-28T22:27:02.099Z,14.33
2022-12-28T22:30:07.101Z,15.85
2022-12-28T22:33:06.775Z,16.48
2022-12-28T22:36:30.491Z,14.70
2022-12-28T22:39:37.542Z,14.05
2022-12-28T22:42:44.305Z,12.45
2022-12-28T22:45:51.559Z,11.73
2022-12-28T22:48:57.593Z,11.80
2022-12-28T22:52:06.171Z,12.53
2022-12-28T22:55:12.059Z,13.43
2022-12-28T22:58:19.098Z,12.58
2022-12-28T23:01:29.038Z,12.47
2022-12-28T23:04:35.940Z,12.80
2022-12-28T23:07:42.874Z,13.93
2022-12-28T23:10:49.807Z,15.88
2022-12-28T23:13:56.485Z,16.75
2022-12-28T23:17:02.618Z,15.45
2022-12-28T23:20:27.081Z,13.68
2022-12-28T23:23:43.028Z,13.20
2022-12-28T23:27:06.358Z,13.90
2022-12-28T23:33:17.770Z,12.82
2022-12-28T23:36:24.074Z,12.45
2022-12-28T23:39:31.911Z,9.78
2022-12-28T23:42:37.775Z,10.03
2022-12-28T23:45:42.426Z,10.38
2022-12-28T23:48:47.610Z,9.95
2022-12-28T23:51:53.402Z,9.05
2022-12-28T23:54:59.526Z,9.55
2022-12-28T23:58:04.935Z,9.33
